This is the latest recevied weather packets stored in our database for station/object G4KVI. If no packets are shown the sender has not sent any weather packets the latest 10 day(s).
| Time | Temp. | Humidity | Pressure | Rain* | Wind** | Luminosity | Snow |
|---|---|---|---|---|---|---|---|
| 1787472303 | 15.56° C | 68% | 1028.2 hPa | 0 mm | - | 307 W/m² | - |
| 1787472003 | 15° C | 70% | 1028.3 hPa | 0 mm | - | 294 W/m² | - |
| 1787471703 | 15° C | 71% | 1028.4 hPa | 0 mm | - | 280 W/m² | - |
| 1787471403 | 15° C | 70% | 1028.5 hPa | 0 mm | - | 267 W/m² | - |
| 1787471103 | 14.44° C | 71% | 1028.5 hPa | 0 mm | - | 254 W/m² | - |
| 1787470803 | 14.44° C | 71% | 1028.3 hPa | 0 mm | - | 242 W/m² | - |
| 1787470503 | 14.44° C | 73% | 1028.6 hPa | 0 mm | - | 230 W/m² | - |
| 1787470203 | 14.44° C | 72% | 1028.4 hPa | 0 mm | - | 216 W/m² | - |
| 1787469903 | 14.44° C | 72% | 1028.5 hPa | 0 mm | - | 204 W/m² | - |
| 1787469603 | 14.44° C | 72% | 1028.4 hPa | 0 mm | - | 191 W/m² | - |
| 1787469303 | 13.33° C | 77% | 1028.3 hPa | 0 mm | - | 179 W/m² | - |
| 1787469003 | 13.33° C | 75% | 1028.5 hPa | 0 mm | - | 167 W/m² | - |
| 1787468703 | 13.89° C | 74% | 1028.4 hPa | 0 mm | - | 154 W/m² | - |
| 1787468403 | 13.89° C | 75% | 1028.2 hPa | 0 mm | - | 129 W/m² | - |
| 1787468103 | 13.89° C | 73% | 1028.3 hPa | 0 mm | - | 104 W/m² | - |
| 1787467803 | 13.89° C | 74% | 1028.3 hPa | 0 mm | - | 89 W/m² | - |
| 1787467503 | 13.33° C | 76% | 1028.3 hPa | 0 mm | - | 81 W/m² | - |
| 1787467203 | 12.78° C | 77% | 1028.4 hPa | 0 mm | - | 78 W/m² | - |
| 1787466903 | 12.78° C | 78% | 1028 hPa | 0 mm | - | 78 W/m² | - |
| 1787466603 | 12.78° C | 77% | 1028.1 hPa | 0 mm | - | 77 W/m² | - |
| 1787466303 | 12.22° C | 81% | 1028.2 hPa | 0 mm | - | 75 W/m² | - |
| 1787466003 | 11.67° C | 87% | 1028.4 hPa | 0 mm | - | 72 W/m² | - |
| 1787465703 | 10.56° C | 89% | 1028.2 hPa | 0 mm | - | 63 W/m² | - |
| 1787465403 | 10° C | 90% | 1028.3 hPa | 0 mm | - | 59 W/m² | - |
| 1787465103 | 10° C | 91% | 1028.3 hPa | 0 mm | - | 44 W/m² | - |
* Rain latest hour (hover to see other rain measurements)
** Current wind speed in m/s (hover to see current wind gust speed)